Currently 68°F in Pinon Hills, California, USA
68°F
69°F / 48°F
2 mph E
0.00"
Saturday, November 16, 2019 1:48 PM PST

Pinon Hills, California Weather Summary
Last 36 Hours

Temperature Winds Hourly Humidity Dewpoint
Time Report Norm Report Norm Max Gusts Precip. Rpt. Norm Rpt. Norm Pressure
1Sat 01:48 PM  68.0°F  63°F  2 mph E  3 mph  6 mph  0.00"  19%  24%  23°F  24°F  30.04"
2Sat 01:30 PM  68.8°F  63°F  5 mph NE  3 mph  8 mph  ----  18%  24%  22°F  24°F  30.05"
Sat 01:00 PM  68.0°F  63°F  3 mph SE  3 mph  8 mph  0.00"  20%  24%  24°F  24°F  30.06"
Sat 12:00 PM  67.3°F  62°F  2 mph S  4 mph  10 mph  0.00"  22%  25%  26°F  24°F  30.08"
Sat 11:00 AM  65.6°F  61°F  4 mph NE  4 mph  9 mph  0.00"  24%  27%  26°F  25°F  30.11"
Sat 10:00 AM  65.2°F  60°F  5 mph SE  3 mph  7 mph  0.00"  24%  28%  26°F  25°F  30.13"
Sat 09:00 AM  63.0°F  58°F  2 mph S  3 mph  5 mph  0.00"  25%  29%  25°F  25°F  30.11"
Sat 08:00 AM  59.5°F  55°F  3 mph S  2 mph  6 mph  0.00"  29%  31%  26°F  24°F  30.10"
Sat 07:00 AM  51.4°F  49°F  2 mph SW  2 mph  6 mph  0.00"  34%  35%  23°F  22°F  30.09"
Sat 06:00 AM  51.7°F  48°F  3 mph SW  2 mph  4 mph  0.00"  35%  36%  24°F  22°F  30.06"
Sat 05:00 AM  51.0°F  48°F  2 mph SW  2 mph  5 mph  0.00"  37%  37%  24°F  22°F  30.06"
Sat 04:00 AM  50.0°F  49°F  3 mph SW  2 mph  5 mph  0.00"  38%  36%  25°F  22°F  30.05"
Sat 03:00 AM  49.6°F  49°F  2 mph SW  2 mph  5 mph  0.00"  37%  35%  23°F  21°F  30.04"
3Sat 02:36 AM  48.4°F  49°F  2 mph SW  3 mph  2 mph  ----  39%  35%  23°F  22°F  30.04"
Sat 02:00 AM  49.2°F  49°F  2 mph S  2 mph  4 mph  0.00"  40%  35%  25°F  21°F  30.05"
Sat 01:00 AM  49.9°F  50°F  2 mph SW  2 mph  4 mph  0.00"  41%  34%  26°F  21°F  30.06"
Sat 12:00 AM  52.2°F  50°F  2 mph SW  2 mph  5 mph  0.00"  40%  35%  27°F  22°F  30.04"
Fri 11:00 PM  51.1°F  50°F  3 mph SW  3 mph  4 mph  0.00"  38%  35%  25°F  22°F  30.04"
Fri 10:00 PM  52.0°F  50°F  2 mph SW  2 mph  5 mph  0.00"  36%  35%  25°F  22°F  30.04"
Fri 09:00 PM  52.7°F  51°F  3 mph SW  2 mph  7 mph  0.00"  35%  35%  25°F  23°F  30.04"
Fri 08:00 PM  54.6°F  51°F  3 mph SW  2 mph  8 mph  0.00"  29%  35%  22°F  23°F  30.03"
Fri 07:00 PM  55.1°F  51°F  3 mph SW  2 mph  7 mph  0.00"  27%  34%  20°F  22°F  30.03"
Fri 06:00 PM  56.6°F  52°F  4 mph SW  2 mph  7 mph  0.00"  27%  34%  22°F  24°F  30.02"
Fri 05:00 PM  59.9°F  54°F  1 mph N  2 mph  3 mph  0.00"  24%  32%  22°F  24°F  30.01"
Fri 04:00 PM  64.7°F  60°F  calm  2 mph  7 mph  0.00"  21%  26%  23°F  24°F  30.00"
Fri 03:00 PM  66.0°F  63°F  2 mph N  3 mph  8 mph  0.00"  17%  24%  18°F  24°F  30.01"
Fri 02:00 PM  66.9°F  63°F  3 mph S  4 mph  8 mph  0.00"  17%  23%  19°F  23°F  30.02"
Fri 01:00 PM  65.2°F  63°F  4 mph E  4 mph  8 mph  0.00"  19%  23%  21°F  24°F  30.04"
Fri 12:00 PM  65.2°F  62°F  4 mph E  4 mph  7 mph  0.00"  19%  24%  21°F  24°F  30.06"
Fri 11:00 AM  63.8°F  61°F  calm  4 mph  6 mph  0.00"  27%  26%  28°F  25°F  30.08"
Fri 10:00 AM  63.1°F  60°F  1 mph S  3 mph  6 mph  0.00"  27%  28%  27°F  25°F  30.10"
Fri 09:00 AM  59.7°F  58°F  2 mph SW  3 mph  8 mph  0.00"  33%  29%  29°F  24°F  30.10"
Fri 08:00 AM  58.9°F  55°F  calm  2 mph  6 mph  0.00"  32%  31%  28°F  24°F  30.08"
Fri 07:00 AM  54.2°F  49°F  2 mph SW  2 mph  6 mph  0.00"  19%  35%  11°F  22°F  30.08"
Fri 06:00 AM  49.0°F  48°F  2 mph SW  2 mph  5 mph  0.00"  30%  36%  17°F  21°F  30.07"
Fri 05:00 AM  51.1°F  48°F  2 mph SW  2 mph  7 mph  0.00"  38%  36%  25°F  22°F  30.08"
Fri 04:00 AM  54.6°F  49°F  4 mph W  2 mph  7 mph  0.00"  33%  35%  25°F  21°F  30.08"
Fri 03:00 AM  52.8°F  49°F  1 mph S  2 mph  6 mph  0.00"  32%  34%  22°F  21°F  30.06"
Fri 02:00 AM  52.3°F  49°F  calm  2 mph  4 mph  0.00"  37%  34%  26°F  21°F  30.08"

  1. Current weather data. No green row appears if the current weather data is also the high or low for the current day.
  2. High temperature for the current day.
  3. Low temperature for the current day.

The Pinon Hills, California weather pages are a service of WeatherCurrents.
Copyright ©2019  WeatherCurrents. All rights reserved. - Submit questions and comments - Privacy Policy

This page automatically refreshes every 10 minutes.